Time;durP1;ratioP1;P1;durP2;ratioP2;P2;SDS_P1;SDS_P2;PMS_P1;PMS_P2;Temp;Humidity;BMP_temperature;BMP_pressure;BME280_temperature;BME280_humidity;BME280_pressure;Samples;Min_cycle;Max_cycle;Signal;HPM_P1;HPM_P2
2021/10/04 00:00:18;;;;;;;2.67;0.60;;;;;;;13.35;75.59;101298.69;5003407;28;20216;-77
2021/10/04 00:02:43;;;;;;;0.87;0.70;;;;;;;13.29;75.05;101302.03;5006004;28;20702;-77
2021/10/04 00:05:10;;;;;;;1.53;0.83;;;;;;;13.30;75.18;101292.63;4985848;28;20208;-76
2021/10/04 00:07:36;;;;;;;2.73;0.90;;;;;;;13.32;75.20;101304.66;4999006;28;20214;-78
2021/10/04 00:10:06;;;;;;;2.83;0.90;;;;;;;13.30;74.50;101302.91;5005330;28;20258;-77
2021/10/04 00:12:32;;;;;;;2.87;0.73;;;;;;;13.30;74.78;101297.75;5006068;28;20210;-77
2021/10/04 00:14:57;;;;;;;1.23;0.97;;;;;;;13.27;74.77;101305.41;5003012;28;20180;-77
2021/10/04 00:17:22;;;;;;;2.20;0.77;;;;;;;13.27;75.34;101311.44;5011081;28;20230;-78
2021/10/04 00:19:48;;;;;;;1.27;0.60;;;;;;;13.25;75.61;101325.97;4987258;28;20188;-77
2021/10/04 00:22:13;;;;;;;1.70;0.77;;;;;;;13.22;75.31;101318.19;5009642;28;20724;-77
2021/10/04 00:24:38;;;;;;;0.67;0.60;;;;;;;13.21;75.42;101321.59;4997375;28;20216;-77
2021/10/04 00:27:04;;;;;;;1.87;1.00;;;;;;;13.23;75.20;101331.94;5000745;28;20200;-78
2021/10/04 00:29:29;;;;;;;3.40;0.77;;;;;;;13.15;75.53;101331.81;4996631;28;20250;-78
2021/10/04 00:31:54;;;;;;;1.90;0.70;;;;;;;13.15;75.73;101318.06;4993935;28;20190;-78
2021/10/04 00:34:20;;;;;;;1.83;0.93;;;;;;;13.13;75.38;101332.63;5002940;28;20662;-77
2021/10/04 00:36:45;;;;;;;1.17;0.70;;;;;;;13.11;75.32;101347.16;5004308;28;20267;-77
2021/10/04 00:39:11;;;;;;;2.73;0.70;;;;;;;13.09;75.75;101357.41;4980987;28;20227;-77
2021/10/04 00:41:37;;;;;;;1.87;0.90;;;;;;;13.06;76.25;101356.47;5009587;28;20202;-76
2021/10/04 00:44:02;;;;;;;2.13;0.73;;;;;;;13.07;75.97;101353.94;5010348;28;20309;-77
2021/10/04 00:46:28;;;;;;;2.63;0.90;;;;;;;13.02;76.25;101347.84;5007917;28;20192;-76
2021/10/04 00:48:53;;;;;;;1.47;0.80;;;;;;;13.05;75.97;101347.03;5004096;28;20666;-77
2021/10/04 00:51:21;;;;;;;1.43;0.77;;;;;;;12.98;75.70;101355.50;5006323;28;20191;-77
2021/10/04 00:53:51;;;;;;;2.10;0.77;;;;;;;13.00;76.08;101348.66;5005902;28;20211;-78
2021/10/04 00:56:17;;;;;;;2.80;0.90;;;;;;;12.98;75.80;101343.50;5002568;28;20192;-77
2021/10/04 00:58:43;;;;;;;1.00;0.87;;;;;;;12.96;76.77;101342.59;5009181;28;20222;-78
2021/10/04 01:01:09;;;;;;;3.60;1.00;;;;;;;12.93;76.45;101348.53;5008379;28;20262;-75
2021/10/04 01:03:34;;;;;;;2.33;0.90;;;;;;;12.90;76.82;101353.59;5008146;28;20239;-77
2021/10/04 01:06:00;;;;;;;2.83;0.80;;;;;;;12.86;76.58;101353.53;4997889;28;20198;-78
2021/10/04 01:08:25;;;;;;;1.80;0.97;;;;;;;12.89;76.00;101367.31;4982852;28;20204;-78
2021/10/04 01:10:51;;;;;;;1.20;0.70;;;;;;;12.91;76.24;101386.19;5001218;28;20689;-78
2021/10/04 01:13:17;;;;;;;1.53;0.90;;;;;;;12.85;76.32;101395.47;5007092;28;20231;-78
2021/10/04 01:15:43;;;;;;;2.40;0.73;;;;;;;12.80;76.59;101403.13;4992045;28;20223;-77
2021/10/04 01:18:08;;;;;;;1.50;0.70;;;;;;;12.71;77.21;101394.34;5003068;28;20260;-78
2021/10/04 01:20:35;;;;;;;2.83;0.77;;;;;;;12.71;77.03;101387.53;5000793;28;20191;-77
2021/10/04 01:23:01;;;;;;;1.10;0.77;;;;;;;12.69;77.69;101383.19;5008096;28;20212;-76
2021/10/04 01:25:27;;;;;;;2.80;0.80;;;;;;;12.65;77.46;101386.53;4981792;28;20212;-77
2021/10/04 01:27:53;;;;;;;0.87;0.70;;;;;;;12.63;77.12;101393.34;5007094;28;20194;-78
2021/10/04 01:30:22;;;;;;;1.60;0.70;;;;;;;12.60;77.33;101391.59;5005493;28;20269;-78
2021/10/04 01:32:48;;;;;;;3.27;0.87;;;;;;;12.58;77.23;101398.38;5002907;28;20212;-77
2021/10/04 01:35:14;;;;;;;1.87;0.90;;;;;;;12.57;77.09;101395.78;5008374;28;20582;-77
2021/10/04 01:37:40;;;;;;;0.83;0.73;;;;;;;12.50;77.36;101399.06;5006032;28;20186;-77
2021/10/04 01:40:07;;;;;;;1.20;0.90;;;;;;;12.41;78.04;101396.31;5001107;28;20191;-77
2021/10/04 01:42:33;;;;;;;2.13;0.83;;;;;;;12.42;78.12;101401.50;5000766;28;20660;-78
2021/10/04 01:44:59;;;;;;;2.23;0.67;;;;;;;12.38;77.71;101404.81;4992303;28;20191;-78
2021/10/04 01:47:24;;;;;;;5.57;1.10;;;;;;;12.33;78.12;101413.25;5003378;28;20191;-78
2021/10/04 01:49:50;;;;;;;2.50;0.90;;;;;;;12.36;78.42;101416.75;4989603;28;20306;-78
2021/10/04 01:52:15;;;;;;;1.27;0.70;;;;;;;12.34;78.58;101417.56;4990335;28;20216;-79
2021/10/04 01:54:42;;;;;;;3.03;1.03;;;;;;;12.34;78.39;101417.56;5003763;28;20277;-78
2021/10/04 01:57:08;;;;;;;1.90;0.80;;;;;;;12.33;78.95;101424.41;4998952;28;20214;-77
2021/10/04 01:59:33;;;;;;;1.90;0.93;;;;;;;12.26;79.08;101439.66;4997112;28;20195;-77
2021/10/04 02:01:58;;;;;;;2.50;0.67;;;;;;;12.23;79.22;101445.59;5000972;28;20192;-77
2021/10/04 02:04:24;;;;;;;2.93;0.83;;;;;;;12.18;79.52;101444.63;5004423;28;20219;-78
2021/10/04 02:06:52;;;;;;;1.63;0.90;;;;;;;12.22;78.91;101437.84;5007887;28;20220;-79
2021/10/04 02:09:18;;;;;;;1.33;0.80;;;;;;;12.24;79.58;101441.31;5005891;28;20191;-78
2021/10/04 02:11:45;;;;;;;1.30;1.10;;;;;;;12.17;79.35;101445.44;4980300;28;20197;-77
2021/10/04 02:14:11;;;;;;;2.00;0.90;;;;;;;12.18;79.01;101449.75;5002051;28;20240;-78
2021/10/04 02:16:36;;;;;;;1.50;0.97;;;;;;;12.15;78.05;101448.81;4999908;28;20196;-78
2021/10/04 02:19:02;;;;;;;1.20;1.00;;;;;;;12.15;78.69;101459.94;4996452;28;20209;-78
2021/10/04 02:21:28;;;;;;;2.50;1.00;;;;;;;12.16;78.37;101453.13;5005977;28;20216;-78
2021/10/04 02:23:53;;;;;;;2.73;1.20;;;;;;;12.09;79.57;101461.50;5003575;28;20593;-79
2021/10/04 02:26:18;;;;;;;2.00;0.93;;;;;;;12.07;79.00;101473.44;4997204;28;20196;-78
2021/10/04 02:28:44;;;;;;;2.13;0.90;;;;;;;12.03;79.23;101469.91;4998659;28;20203;-78
2021/10/04 02:31:09;;;;;;;2.33;1.03;;;;;;;12.04;79.16;101471.69;5007024;28;20206;-76
2021/10/04 02:33:34;;;;;;;3.50;0.93;;;;;;;12.00;79.54;101479.25;5007466;28;20312;-78
2021/10/04 02:36:00;;;;;;;3.07;1.00;;;;;;;12.01;79.17;101469.03;5011665;28;20187;-78
2021/10/04 02:38:25;;;;;;;1.93;1.00;;;;;;;12.03;79.01;101476.78;5002058;28;20197;-78
2021/10/04 02:40:50;;;;;;;3.10;1.10;;;;;;;12.05;79.79;101475.09;5002402;28;20199;-77
2021/10/04 02:43:18;;;;;;;1.63;1.17;;;;;;;12.06;79.49;101464.88;4987146;28;20248;-77
2021/10/04 02:45:48;;;;;;;4.03;1.33;;;;;;;12.07;79.75;101450.34;5002714;28;20199;-78
2021/10/04 02:48:13;;;;;;;1.77;1.00;;;;;;;12.01;79.57;101448.50;4985136;28;20243;-76
2021/10/04 02:50:39;;;;;;;3.77;1.00;;;;;;;12.05;79.36;101459.69;5016609;28;20209;-78
2021/10/04 02:53:04;;;;;;;3.53;1.10;;;;;;;12.00;79.53;101461.28;5002689;28;20734;-77
2021/10/04 02:55:29;;;;;;;4.00;1.40;;;;;;;11.94;79.71;101462.00;4996555;28;20661;-76
2021/10/04 02:57:54;;;;;;;3.20;1.20;;;;;;;11.92;79.87;101449.97;4998005;28;20181;-77
2021/10/04 03:00:20;;;;;;;2.87;1.00;;;;;;;11.93;79.65;101459.44;4996639;28;20231;-77
2021/10/04 03:02:45;;;;;;;2.20;1.00;;;;;;;11.95;79.51;101455.19;4997600;28;20203;-76
2021/10/04 03:05:11;;;;;;;3.20;1.20;;;;;;;11.95;80.03;101463.75;4984869;28;20196;-78
2021/10/04 03:07:37;;;;;;;3.20;1.30;;;;;;;11.92;80.10;101463.69;4976433;28;20267;-78
2021/10/04 03:10:03;;;;;;;2.30;1.23;;;;;;;11.90;79.97;101469.63;4978096;28;20185;-78
2021/10/04 03:12:29;;;;;;;2.83;1.30;;;;;;;11.90;80.02;101464.47;4977281;28;20247;-78
2021/10/04 03:14:54;;;;;;;1.83;1.30;;;;;;;11.87;80.11;101465.28;4976097;28;20225;-78
2021/10/04 03:17:19;;;;;;;2.10;1.37;;;;;;;11.88;80.10;101459.31;4977151;28;20184;-78
2021/10/04 03:19:45;;;;;;;2.40;1.20;;;;;;;11.87;80.07;101469.53;4992235;28;20199;-77
2021/10/04 03:22:10;;;;;;;2.67;1.40;;;;;;;11.84;80.52;101472.03;4981601;28;20247;-78
2021/10/04 03:24:36;;;;;;;2.63;1.33;;;;;;;11.84;80.57;101475.44;4979184;28;20188;-78
2021/10/04 03:27:01;;;;;;;3.80;1.30;;;;;;;11.82;80.49;101484.81;4994749;28;20191;-78
2021/10/04 03:29:27;;;;;;;1.70;1.40;;;;;;;11.80;80.22;101483.06;4996212;28;20191;-78
2021/10/04 03:31:52;;;;;;;3.97;2.00;;;;;;;11.82;79.91;101484.81;4997614;28;20192;-79
2021/10/04 03:34:18;;;;;;;5.67;2.37;;;;;;;11.81;80.57;101495.03;4998108;28;20745;-77
2021/10/04 03:36:44;;;;;;;4.63;1.63;;;;;;;11.75;80.93;101494.91;4999726;28;20184;-78
2021/10/04 03:39:10;;;;;;;4.93;1.80;;;;;;;11.73;80.76;101486.28;4998361;28;20273;-77
2021/10/04 03:41:36;;;;;;;2.57;1.83;;;;;;;11.74;80.43;101488.00;4997874;28;20214;-79
2021/10/04 03:44:02;;;;;;;2.73;1.80;;;;;;;11.67;80.84;101494.72;4994286;28;20594;-78
2021/10/04 03:46:27;;;;;;;2.70;1.60;;;;;;;11.72;80.43;101490.56;5002992;28;20191;-77
2021/10/04 03:48:52;;;;;;;4.93;1.90;;;;;;;11.72;80.97;101487.13;5020968;28;20185;-77
2021/10/04 03:51:18;;;;;;;4.70;1.97;;;;;;;11.71;81.17;101483.69;5019198;28;20851;-76
2021/10/04 03:53:43;;;;;;;5.37;2.47;;;;;;;11.73;80.55;101489.72;5020270;28;20211;-77
2021/10/04 03:56:09;;;;;;;4.27;2.20;;;;;;;11.75;80.55;101489.78;5013994;28;20200;-77
2021/10/04 03:58:34;;;;;;;5.17;2.37;;;;;;;11.67;80.94;101487.03;5017933;28;20222;-78
2021/10/04 04:01:00;;;;;;;5.50;2.50;;;;;;;11.68;81.26;101493.00;5019950;28;20707;-77
2021/10/04 04:03:25;;;;;;;4.27;1.73;;;;;;;11.64;81.08;101496.31;5018635;28;20234;-79
2021/10/04 04:05:51;;;;;;;3.73;1.97;;;;;;;11.63;81.30;101492.91;5018244;28;20196;-77
2021/10/04 04:08:16;;;;;;;4.87;2.00;;;;;;;11.60;81.37;101499.63;5018849;28;20196;-77
2021/10/04 04:10:41;;;;;;;4.30;2.07;;;;;;;11.62;81.22;101505.69;5018917;28;20202;-78
2021/10/04 04:13:07;;;;;;;4.47;2.03;;;;;;;11.63;81.14;101503.16;5012849;28;20251;-77
2021/10/04 04:15:32;;;;;;;3.77;2.13;;;;;;;11.60;81.22;101508.19;4981112;28;20184;-76
2021/10/04 04:17:58;;;;;;;3.30;1.87;;;;;;;11.55;81.86;101511.44;4981488;28;20192;-77
2021/10/04 04:20:23;;;;;;;2.33;1.73;;;;;;;11.57;81.59;101509.78;4979827;28;20654;-77
2021/10/04 04:22:48;;;;;;;3.40;2.10;;;;;;;11.54;81.73;101517.41;4979278;28;20208;-78
2021/10/04 04:25:15;;;;;;;4.10;2.30;;;;;;;11.49;82.01;101516.41;4980353;28;20204;-78
2021/10/04 04:27:42;;;;;;;4.30;2.50;;;;;;;11.46;82.09;101524.00;4995268;28;20211;-79
2021/10/04 04:30:09;;;;;;;4.47;2.30;;;;;;;11.50;81.89;101524.16;4979484;28;20575;-76
2021/10/04 04:32:35;;;;;;;3.90;2.77;;;;;;;11.52;81.67;101522.47;4980035;28;20188;-77
2021/10/04 04:35:05;;;;;;;4.93;2.83;;;;;;;11.51;81.99;101530.13;5014523;28;20227;-77
2021/10/04 04:37:33;;;;;;;5.73;2.60;;;;;;;11.51;81.71;101540.38;5017873;28;20188;-77
2021/10/04 04:39:58;;;;;;;3.33;2.73;;;;;;;11.52;81.17;101537.88;5018029;28;20455;-76
2021/10/04 04:42:25;;;;;;;3.97;3.00;;;;;;;11.51;81.42;101550.66;5009283;28;20207;-77
2021/10/04 04:44:51;;;;;;;7.30;3.03;;;;;;;11.50;81.75;101559.19;5011011;28;20248;-76
2021/10/04 04:47:17;;;;;;;4.77;3.27;;;;;;;11.48;82.12;101559.13;5010501;28;21106;-77
2021/10/04 04:49:42;;;;;;;5.57;3.10;;;;;;;11.48;81.63;101564.25;4980720;28;20276;-78
2021/10/04 04:52:07;;;;;;;3.23;2.63;;;;;;;11.48;81.41;101559.13;4979102;28;20208;-77
2021/10/04 04:54:33;;;;;;;4.80;2.83;;;;;;;11.40;81.85;101559.75;4994534;28;20220;-79
2021/10/04 04:57:00;;;;;;;3.53;3.20;;;;;;;11.42;82.09;101558.09;4978362;28;20184;-77
2021/10/04 04:59:26;;;;;;;4.43;2.80;;;;;;;11.44;81.50;101554.78;4979378;28;20220;-77
2021/10/04 05:01:52;;;;;;;3.90;2.60;;;;;;;11.46;81.90;101555.66;4979781;28;20231;-77
2021/10/04 05:04:17;;;;;;;5.00;3.10;;;;;;;11.46;81.66;101558.22;4983747;28;20227;-78
2021/10/04 05:06:43;;;;;;;4.50;2.83;;;;;;;11.45;81.29;101553.06;4999706;28;20184;-77
2021/10/04 05:09:08;;;;;;;4.87;3.17;;;;;;;11.43;81.31;101555.56;4982131;28;20195;-77
2021/10/04 05:11:34;;;;;;;6.43;3.20;;;;;;;11.42;81.20;101568.34;4998463;28;20552;-78
2021/10/04 05:13:59;;;;;;;6.10;3.20;;;;;;;11.38;81.58;101581.94;4997999;28;20303;-78
2021/10/04 05:16:24;;;;;;;4.63;2.83;;;;;;;11.38;81.77;101574.25;4997607;28;20196;-78
2021/10/04 05:18:50;;;;;;;3.80;3.03;;;;;;;11.37;82.04;101578.50;4998433;28;20640;-78
2021/10/04 05:21:15;;;;;;;5.33;2.90;;;;;;;11.40;81.75;101577.72;4998606;28;20199;-78
2021/10/04 05:23:40;;;;;;;3.20;2.77;;;;;;;11.42;82.20;101594.88;4998441;28;20721;-78
2021/10/04 05:26:06;;;;;;;5.17;2.80;;;;;;;11.46;81.64;101603.50;4998317;28;20195;-77
2021/10/04 05:28:34;;;;;;;5.27;2.70;;;;;;;11.47;81.48;101595.03;4997875;28;20542;-78
2021/10/04 05:30:59;;;;;;;5.60;2.57;;;;;;;11.43;81.91;101598.31;4998416;28;20219;-78
2021/10/04 05:33:25;;;;;;;4.83;2.83;;;;;;;11.45;81.75;101600.09;4997567;28;20220;-79
2021/10/04 05:35:50;;;;;;;4.60;2.63;;;;;;;11.44;82.18;101602.63;5008499;28;20195;-76
2021/10/04 05:38:15;;;;;;;5.90;2.67;;;;;;;11.46;82.19;101604.41;5008661;28;20208;-77
2021/10/04 05:40:41;;;;;;;5.80;3.10;;;;;;;11.45;82.69;101606.91;4977591;28;20192;-77
2021/10/04 05:43:06;;;;;;;5.80;2.67;;;;;;;11.46;82.77;101599.25;4977665;28;20235;-78
2021/10/04 05:45:32;;;;;;;6.30;3.10;;;;;;;11.49;82.33;101591.66;4977953;28;20217;-77
2021/10/04 05:47:57;;;;;;;4.23;2.70;;;;;;;11.52;82.18;101586.59;4977474;28;20189;-79
2021/10/04 05:50:23;;;;;;;4.20;3.00;;;;;;;11.56;81.87;101585.88;4978012;28;20672;-78
2021/10/04 05:52:49;;;;;;;4.00;2.87;;;;;;;11.58;81.98;101589.34;4993925;28;20216;-78
2021/10/04 05:55:15;;;;;;;4.40;2.57;;;;;;;11.58;82.20;101588.47;4978227;28;20571;-77
2021/10/04 05:57:41;;;;;;;5.27;2.87;;;;;;;11.61;81.77;101586.88;4994411;28;20689;-80
2021/10/04 06:00:08;;;;;;;6.03;2.40;;;;;;;11.62;82.12;101585.19;4978170;28;20184;-79
2021/10/04 06:02:34;;;;;;;3.97;2.40;;;;;;;11.60;81.90;101592.84;4977481;28;20188;-78
2021/10/04 06:04:59;;;;;;;5.83;2.80;;;;;;;11.65;81.62;101596.41;4994126;28;20239;-78
2021/10/04 06:07:25;;;;;;;4.97;2.70;;;;;;;11.66;82.36;101589.59;4980682;28;20212;-79
2021/10/04 06:09:50;;;;;;;4.40;2.50;;;;;;;11.70;81.88;101594.84;4995604;28;20196;-79
2021/10/04 06:12:16;;;;;;;3.83;2.90;;;;;;;11.72;81.98;101584.63;4982176;28;20203;-79
2021/10/04 06:14:41;;;;;;;4.60;2.40;;;;;;;11.72;82.18;101595.75;4998183;28;20219;-79
2021/10/04 06:17:07;;;;;;;3.77;2.70;;;;;;;11.74;81.86;101606.91;4997409;28;20192;-79
2021/10/04 06:19:32;;;;;;;4.83;2.40;;;;;;;11.81;81.54;101605.38;4996176;28;20215;-76
2021/10/04 06:21:58;;;;;;;3.33;2.53;;;;;;;11.87;81.19;101606.41;5002269;28;20195;-78
2021/10/04 06:24:23;;;;;;;6.13;2.87;;;;;;;11.93;81.68;101603.16;5000392;28;20298;-77
2021/10/04 06:26:48;;;;;;;3.90;2.40;;;;;;;11.99;81.11;101609.28;4994990;28;20200;-78
2021/10/04 06:29:14;;;;;;;4.20;2.70;;;;;;;12.12;80.40;101613.06;5000497;28;20200;-77
2021/10/04 06:31:39;;;;;;;3.53;2.50;;;;;;;12.16;80.41;101620.88;5000808;28;20311;-77
2021/10/04 06:34:05;;;;;;;5.60;2.80;;;;;;;12.20;80.17;101630.38;4970889;28;20216;-79
2021/10/04 06:36:30;;;;;;;4.00;2.27;;;;;;;12.21;79.86;101633.84;4970628;28;20213;-78
2021/10/04 06:38:55;;;;;;;3.60;2.53;;;;;;;12.24;79.65;101644.16;4992420;28;20665;-78
2021/10/04 06:41:21;;;;;;;5.30;2.53;;;;;;;12.29;79.84;101640.00;4963774;28;20243;-79
2021/10/04 06:43:47;;;;;;;4.87;2.60;;;;;;;12.28;79.86;101638.28;4981054;28;20271;-77
2021/10/04 06:46:12;;;;;;;4.73;2.70;;;;;;;12.38;79.24;101633.41;4972984;28;20185;-78
2021/10/04 06:48:38;;;;;;;3.97;2.27;;;;;;;12.38;79.59;101642.81;4954852;28;20227;-78
2021/10/04 06:51:05;;;;;;;3.63;2.30;;;;;;;12.40;79.64;101642.00;4971290;28;20203;-77
2021/10/04 06:53:31;;;;;;;5.90;2.37;;;;;;;12.38;79.31;101646.25;4973367;28;20241;-78
2021/10/04 06:55:57;;;;;;;4.10;2.50;;;;;;;12.45;79.37;101649.84;4976431;28;20193;-77
2021/10/04 06:58:22;;;;;;;4.40;2.20;;;;;;;12.48;79.36;101657.59;4991517;28;20283;-78
2021/10/04 07:00:48;;;;;;;4.53;2.53;;;;;;;12.46;79.43;101660.16;4977298;28;20201;-78
2021/10/04 07:03:13;;;;;;;3.67;2.40;;;;;;;12.44;79.25;101666.09;4977731;28;20215;-77
2021/10/04 07:05:39;;;;;;;5.27;2.40;;;;;;;12.52;79.26;101673.16;4973191;28;20259;-77
2021/10/04 07:08:04;;;;;;;5.30;2.53;;;;;;;12.48;79.57;101665.31;4975248;28;20204;-77
2021/10/04 07:10:30;;;;;;;3.80;2.30;;;;;;;12.56;79.24;101661.25;4975359;28;20244;-79
2021/10/04 07:12:56;;;;;;;4.77;2.50;;;;;;;12.62;78.94;101669.97;4987245;28;20207;-77
2021/10/04 07:15:21;;;;;;;4.30;2.30;;;;;;;12.76;78.11;101660.03;4985436;28;20278;-78
2021/10/04 07:17:46;;;;;;;3.20;2.20;;;;;;;12.81;78.55;101664.44;4990909;28;20275;-77
2021/10/04 07:20:12;;;;;;;4.13;2.07;;;;;;;12.88;77.91;101677.44;4987014;28;20291;-77
2021/10/04 07:22:39;;;;;;;5.13;2.10;;;;;;;13.00;77.73;101690.59;4971909;28;20223;-78
2021/10/04 07:25:05;;;;;;;7.40;3.10;;;;;;;13.10;77.44;101703.72;4973432;28;20244;-78
2021/10/04 07:27:31;;;;;;;5.87;2.70;;;;;;;13.07;77.23;101700.22;4973724;28;20603;-77
2021/10/04 07:29:57;;;;;;;4.87;2.00;;;;;;;13.05;77.89;101704.44;4974888;28;20224;-78
2021/10/04 07:32:22;;;;;;;7.77;2.83;;;;;;;13.05;77.61;101707.88;4973337;28;20308;-78
2021/10/04 07:34:47;;;;;;;8.10;2.40;;;;;;;13.09;77.56;101717.41;4974585;28;20304;-77
2021/10/04 07:37:13;;;;;;;5.07;2.27;;;;;;;13.08;77.88;101722.50;4970087;28;20205;-77
2021/10/04 07:39:38;;;;;;;3.50;2.00;;;;;;;13.11;78.16;101736.31;4962238;28;20193;-78
2021/10/04 07:42:04;;;;;;;2.63;1.80;;;;;;;13.07;77.46;101731.06;4975296;28;20187;-77
2021/10/04 07:44:29;;;;;;;3.37;1.90;;;;;;;13.10;77.80;101714.00;4974189;28;20208;-78
2021/10/04 07:46:57;;;;;;;3.07;1.73;;;;;;;13.17;77.70;101723.56;4973202;28;20598;-77
2021/10/04 07:49:23;;;;;;;6.73;2.23;;;;;;;13.22;77.75;101729.69;4961598;28;20627;-77
2021/10/04 07:51:48;;;;;;;2.50;1.93;;;;;;;13.27;77.12;101740.97;4973307;28;20215;-77
2021/10/04 07:54:13;;;;;;;3.10;1.70;;;;;;;13.36;75.92;101743.75;4974287;28;20693;-78
2021/10/04 07:56:39;;;;;;;3.30;1.80;;;;;;;13.50;75.41;101733.75;4974136;28;20230;-76
2021/10/04 07:59:11;;;;;;;3.97;1.50;;;;;;;13.61;75.26;101750.28;4979579;28;20229;-78
2021/10/04 08:01:37;;;;;;;3.20;1.50;;;;;;;13.71;75.55;101750.53;4975415;28;20239;-78
2021/10/04 08:04:03;;;;;;;3.17;1.63;;;;;;;13.78;74.25;101756.69;4982796;28;20235;-79
2021/10/04 08:06:28;;;;;;;4.10;1.40;;;;;;;13.76;74.18;101745.50;4965592;28;20200;-78
2021/10/04 08:08:54;;;;;;;2.47;1.40;;;;;;;13.94;74.20;101735.53;4987382;28;20195;-76
2021/10/04 08:11:20;;;;;;;5.00;1.53;;;;;;;14.13;73.10;101743.66;4967363;28;20204;-78
2021/10/04 08:13:46;;;;;;;2.13;1.27;;;;;;;14.29;72.92;101739.72;4954303;28;20205;-77
2021/10/04 08:16:12;;;;;;;1.83;1.20;;;;;;;14.25;72.47;101748.22;4952916;28;20181;-76
2021/10/04 08:18:37;;;;;;;4.90;2.00;;;;;;;14.28;72.99;101756.03;4987221;28;20201;-77
2021/10/04 08:21:03;;;;;;;2.47;1.30;;;;;;;14.36;72.46;101752.75;4992428;28;20201;-79
2021/10/04 08:23:28;;;;;;;5.60;1.70;;;;;;;14.39;72.37;101752.81;4991190;28;20205;-78
2021/10/04 08:25:54;;;;;;;5.10;1.53;;;;;;;14.47;71.76;101738.34;4991559;28;20375;-79
2021/10/04 08:28:20;;;;;;;4.03;1.60;;;;;;;14.53;71.88;101722.13;4988705;28;20339;-77
2021/10/04 08:30:46;;;;;;;4.07;1.70;;;;;;;14.74;71.75;101743.97;4993278;28;20177;-77
2021/10/04 08:33:12;;;;;;;3.67;1.47;;;;;;;14.95;70.16;101740.88;4997375;28;20704;-78
2021/10/04 08:35:38;;;;;;;3.00;1.07;;;;;;;14.72;71.08;101742.22;4989386;28;20232;-75
2021/10/04 08:38:04;;;;;;;3.77;1.40;;;;;;;14.74;71.40;101737.97;4979706;28;20195;-76
2021/10/04 08:40:29;;;;;;;2.13;1.10;;;;;;;14.79;70.72;101724.31;4976601;28;20216;-78
2021/10/04 08:42:54;;;;;;;4.20;1.43;;;;;;;14.85;70.06;101728.69;4966200;28;20223;-79
2021/10/04 08:45:26;;;;;;;4.17;1.17;;;;;;;14.70;70.17;101733.59;4998948;28;20205;-76
2021/10/04 08:47:52;;;;;;;3.57;1.10;;;;;;;14.70;69.64;101724.16;4965371;28;20240;-77
2021/10/04 08:50:17;;;;;;;3.73;1.20;;;;;;;14.74;70.17;101710.44;4992881;28;20200;-77
2021/10/04 08:52:43;;;;;;;1.80;1.00;;;;;;;14.67;69.60;101726.69;4990942;28;20228;-77
2021/10/04 08:55:09;;;;;;;2.93;1.33;;;;;;;14.64;70.43;101718.88;4977789;28;20208;-77
2021/10/04 08:57:35;;;;;;;4.17;1.30;;;;;;;14.68;69.65;101725.81;4957039;28;20247;-77
2021/10/04 09:00:01;;;;;;;3.17;1.30;;;;;;;14.73;70.59;101729.34;4973504;28;20577;-77
2021/10/04 09:02:30;;;;;;;3.83;1.40;;;;;;;14.68;69.78;101736.13;4972433;28;20577;-77
2021/10/04 09:05:20;;;;;;;2.50;1.40;;;;;;;14.68;70.82;101736.13;4974019;28;20206;-78
2021/10/04 09:07:59;;;;;;;4.90;1.30;;;;;;;14.65;70.43;101746.38;4973476;28;20220;-78
2021/10/04 09:10:29;;;;;;;2.87;1.03;;;;;;;14.77;70.17;101745.72;4971899;28;20554;-78
2021/10/04 09:13:03;;;;;;;3.93;1.13;;;;;;;14.70;70.35;101759.38;4953750;29;20694;-77
2021/10/04 09:15:31;;;;;;;4.43;0.87;;;;;;;14.86;70.10;101751.91;4990837;28;20296;-77
2021/10/04 09:18:16;;;;;;;1.63;1.00;;;;;;;14.95;69.54;101758.94;4979912;28;20252;-77
2021/10/04 09:20:46;;;;;;;4.00;1.53;;;;;;;14.89;69.31;101759.72;4960301;28;20225;-75
2021/10/04 09:23:27;;;;;;;3.53;1.20;;;;;;;14.91;69.24;101752.88;4955148;29;20205;-76
2021/10/04 09:25:52;;;;;;;3.57;1.10;;;;;;;14.96;68.49;101740.91;4970841;28;20228;-77
2021/10/04 09:28:27;;;;;;;5.43;1.53;;;;;;;15.10;69.66;101738.56;4980939;28;20538;-79
2021/10/04 09:30:59;;;;;;;3.00;1.07;;;;;;;15.05;69.34;101741.06;4970284;28;20906;-76
2021/10/04 09:33:25;;;;;;;2.43;1.07;;;;;;;15.04;68.85;101738.44;4980930;28;20213;-76
2021/10/04 09:35:51;;;;;;;3.70;1.03;;;;;;;15.30;68.77;101742.31;4992050;28;20231;-78
2021/10/04 09:38:17;;;;;;;2.60;1.20;;;;;;;15.21;68.40;101739.56;4994472;28;20195;-77
2021/10/04 09:40:45;;;;;;;3.13;1.13;;;;;;;15.27;69.38;101737.97;5001393;28;20193;-77
2021/10/04 09:43:30;;;;;;;3.63;1.33;;;;;;;15.45;68.93;101740.84;4981473;28;20284;-78
2021/10/04 09:46:02;;;;;;;3.47;1.20;;;;;;;15.29;68.30;101749.16;5011169;28;20226;-77
2021/10/04 09:48:27;;;;;;;7.60;1.47;;;;;;;15.30;68.11;101747.47;4984641;28;20742;-77
2021/10/04 09:50:53;;;;;;;3.63;1.03;;;;;;;15.20;68.92;101746.44;5011408;28;20199;-76
2021/10/04 09:53:18;;;;;;;5.13;1.40;;;;;;;15.20;68.03;101756.75;5001326;28;20232;-77
2021/10/04 09:55:46;;;;;;;2.70;1.30;;;;;;;15.33;68.97;101760.41;4994528;28;20195;-78
2021/10/04 09:58:29;;;;;;;4.13;1.10;;;;;;;15.40;69.25;101757.09;4982039;28;20316;-78
2021/10/04 10:00:57;;;;;;;3.30;1.17;;;;;;;15.55;67.98;101757.31;4968839;28;20819;-77
2021/10/04 10:03:37;;;;;;;3.27;1.20;;;;;;;15.73;67.49;101742.94;4996635;28;20647;-77
2021/10/04 10:06:03;;;;;;;2.40;1.20;;;;;;;15.68;67.64;101735.97;4983767;28;20210;-77
2021/10/04 10:08:29;;;;;;;2.43;1.07;;;;;;;15.63;67.86;101733.34;5006961;28;20295;-77
2021/10/04 10:10:57;;;;;;;1.63;0.83;;;;;;;15.73;68.02;101739.47;4961508;28;20225;-77
2021/10/04 10:13:24;;;;;;;3.20;1.43;;;;;;;15.63;67.60;101743.69;4988106;28;20218;-77
2021/10/04 10:16:04;;;;;;;4.07;1.23;;;;;;;15.63;67.14;101740.22;4984405;28;20196;-78
2021/10/04 10:18:39;;;;;;;3.20;1.10;;;;;;;15.65;67.17;101736.81;4973793;28;20181;-78
2021/10/04 10:21:07;;;;;;;2.73;1.27;;;;;;;15.70;67.80;101739.47;4958203;28;20724;-77
2021/10/04 10:23:43;;;;;;;3.80;1.17;;;;;;;15.85;67.34;101750.88;4998981;28;20212;-77
2021/10/04 10:26:33;;;;;;;2.93;1.03;;;;;;;15.83;67.39;101751.66;5012153;28;20238;-77
2021/10/04 10:29:08;;;;;;;4.23;1.30;;;;;;;15.86;66.80;101747.41;4990445;28;20604;-78
2021/10/04 10:31:51;;;;;;;4.27;1.10;;;;;;;15.92;67.48;101756.94;4982010;28;20228;-77
2021/10/04 10:34:23;;;;;;;4.60;1.10;;;;;;;15.82;67.37;101752.50;4967805;28;20232;-78
2021/10/04 10:37:08;;;;;;;5.20;1.33;;;;;;;15.72;66.73;101756.72;4992651;28;20198;-78
2021/10/04 10:39:47;;;;;;;2.97;1.20;;;;;;;15.86;67.29;101749.13;4979426;28;20196;-78
2021/10/04 10:42:13;;;;;;;2.43;1.27;;;;;;;15.95;66.60;101750.13;4983718;28;20196;-78
2021/10/04 10:44:57;;;;;;;1.93;0.93;;;;;;;15.91;65.83;101758.69;4968670;28;20212;-78
2021/10/04 10:47:37;;;;;;;2.83;1.27;;;;;;;15.98;65.77;101763.06;4971981;28;20733;-78
2021/10/04 10:50:39;;;;;;;2.70;1.00;;;;;;;16.04;66.15;101757.97;4949573;28;20257;-77
2021/10/04 10:53:11;;;;;;;2.13;1.00;;;;;;;16.00;65.59;101763.97;4956304;29;20216;-77
2021/10/04 10:55:41;;;;;;;3.63;1.17;;;;;;;16.13;65.78;101764.97;4955273;28;20189;-78
2021/10/04 10:58:12;;;;;;;2.70;1.17;;;;;;;16.14;65.57;101772.75;4977210;28;20199;-78
2021/10/04 11:00:50;;;;;;;2.77;1.10;;;;;;;16.07;65.29;101762.31;4995223;28;20290;-78
2021/10/04 11:03:21;;;;;;;2.60;1.00;;;;;;;16.10;66.26;101768.38;4955442;29;20216;-77
2021/10/04 11:05:47;;;;;;;3.63;1.30;;;;;;;16.11;65.55;101764.94;4957084;28;20186;-78
2021/10/04 11:08:14;;;;;;;5.60;1.23;;;;;;;16.25;65.84;101778.88;4957484;28;20197;-78
2021/10/04 11:10:48;;;;;;;2.40;1.10;;;;;;;16.21;65.15;101776.28;4956386;28;20197;-77
2021/10/04 11:13:31;;;;;;;2.77;1.10;;;;;;;16.23;66.04;101780.59;4956815;28;20591;-78
2021/10/04 11:16:20;;;;;;;2.33;1.00;;;;;;;16.39;66.04;101789.41;4956842;28;20182;-77
2021/10/04 11:18:47;;;;;;;9.10;1.10;;;;;;;16.35;66.20;101796.22;4964881;28;20207;-78
2021/10/04 11:21:25;;;;;;;3.60;0.97;;;;;;;16.19;65.59;101781.41;4976450;28;20191;-77
2021/10/04 11:24:03;;;;;;;3.10;1.10;;;;;;;16.29;65.85;101772.03;4975428;28;20218;-78